EFKUEFOU

Guest
Details From EFKU - Kuopio
To EFOU - Oulu
Flight Number -
Tags generated
Created
Modified
Stats Distance 132 nm / 245 km
Max Altitude 16,400 ft / 4,999 m
Waypoints 3
Social Downloads 1
Likes 0
Share VATSIM

Download

Looking for another format? Having issues loading an existing format? Contact us
Advertisement - Login to hide

Notes

Basic altitude profile: - Ascent Rate: 600ft/min - Ascent Speed: 140kts - Cruise Altitude: 10000ft - Cruise Speed: 180kts - Descent Rate: 600ft/min - Descent Speed: 170kts Options: - Use NATs: yes - Use PACOTS: yes - Use low airways: yes - Use high airways: yes

Route

EFKU UPULI EFOU

ID Type Via Altitude Latitude Longitude Leg Dist Tot Dist Heading (true) Name
O EFKU APT - 0 ft / 0 m 63.00695˚ 27.79870˚ - 0 nm - Kuopio
UPULI FIX - 16,400 ft / 4,999 m 63.74917˚ 27.04306˚ 48 nm 48 nm 336° / 335° -
O EFOU APT - 0 ft / 0 m 64.93006˚ 25.35456˚ 83 nm 132 nm 329° / 327° Oulu

Altitude Profile

Advertisement - Login to hide

EFKU

Details ICAO EFKU (KUO)
Name Kuopio
Region Finland
Timezone Europe/Helsinki (UTC+2.0)
Stats Elevation 323 ft / 98 m (AMSL)
Location 63.006945° 27.798699°
Runways 2
Magnetic Variation 11.019° E

METAR

EFKU 171150Z AUTO 28012KT 9999 OVC005 M05/M06 Q1006

Decode

TAF

TAF EFKU 171136Z 1712/1812 25008KT 9999 BKN005 TEMPO 1712/1718 5000 BKN010 TEMPO 1718/1812 2000 BR BKN003

Decode

Departure Runways

ID Width Length Bearing (true) Bearing (mag) Surface Threshold Offset Overrun Length
06 148 ft / 45 m 4,905 ft / 1,495 m 67.36° 56.34° Asphalt 0 ft / 0 m 190 ft / 58 m
15 197 ft / 60 m 9,164 ft / 2,793 m 157.20° 146.18° Asphalt 0 ft / 0 m 0 ft / 0 m
24 148 ft / 45 m 4,905 ft / 1,495 m 247.38° 236.36° Asphalt 0 ft / 0 m 189 ft / 58 m
33 197 ft / 60 m 9,164 ft / 2,793 m 337.22° 326.20° Asphalt 0 ft / 0 m 0 ft / 0 m

EFOU

Details ICAO EFOU (OUL)
Name Oulu
Region Finland
Timezone Europe/Helsinki (UTC+2.0)
Stats Elevation 47 ft / 14 m (AMSL)
Location 64.930059° 25.354560°
Runways 1
Magnetic Variation 10.663° E

METAR

EFOU 171150Z AUTO 20006KT 9999 -FZUP FEW010 SCT013 OVC015 M03/M04 Q1003

Decode

TAF

TAF AMD TAF AMD EFOU 171157Z 1712/1812 20005KT 9999 OVC015 TEMPO 1712/1806 BKN005 PROB30 1712/1718 -FZDZ TEMPO 1806/1812 BKN010

Decode

Destination Runways

ID Width Length Bearing (true) Bearing (mag) Surface Threshold Offset Overrun Length
12 197 ft / 60 m 8,180 ft / 2,493 m 121.01° 110.35° Asphalt 0 ft / 0 m 200 ft / 61 m
30 197 ft / 60 m 8,180 ft / 2,493 m 301.05° 290.39° Asphalt 0 ft / 0 m 200 ft / 61 m

Approach Navaids

Runway Type Ident Frequency Range Bearing (true) Bearing (mag) Slope Elevation
12 Localiser OU 109.50 MHz 18 nm / 33 km 121.06° 110.39° - 47 ft / 14 m (AMSL)
12 Glidescope OU 109.50 MHz 10 nm / 19 km 121.03° 110.37° 3.00° 47 ft / 14 m (AMSL)
12 DME OU 109.50 MHz 18 nm / 33 km - - - 100 ft / 30 m (AMSL)

Popular Alternatives